createdAt,value
2023-03-14T00:01:49.726Z,11.00
2023-03-14T00:04:23.453Z,10.98
2023-03-14T00:06:51.099Z,10.96
2023-03-14T00:09:18.826Z,10.93
2023-03-14T00:11:45.866Z,10.89
2023-03-14T00:14:13.194Z,10.85
2023-03-14T00:16:41.279Z,10.85
2023-03-14T00:19:08.627Z,10.87
2023-03-14T00:21:35.470Z,10.89
2023-03-14T00:24:02.507Z,10.89
2023-03-14T00:26:29.468Z,10.90
2023-03-14T00:28:57.321Z,10.93
2023-03-14T00:31:24.747Z,10.94
2023-03-14T00:33:54.475Z,10.94
2023-03-14T00:36:22.474Z,10.95
2023-03-14T00:38:54.262Z,10.95
2023-03-14T00:41:25.248Z,10.98
2023-03-14T00:43:52.474Z,10.99
2023-03-14T00:46:19.647Z,11.00
2023-03-14T00:48:47.643Z,10.99
2023-03-14T00:51:16.368Z,10.98
2023-03-14T00:53:44.253Z,10.97
2023-03-14T00:56:13.654Z,10.98
2023-03-14T00:58:41.035Z,10.98
2023-03-14T01:01:14.884Z,11.01
2023-03-14T01:03:41.854Z,11.04
2023-03-14T01:06:28.954Z,11.04
2023-03-14T01:08:56.948Z,11.08
2023-03-14T01:11:33.293Z,11.08
2023-03-14T01:14:01.573Z,11.07
2023-03-14T01:16:29.900Z,11.07
2023-03-14T01:18:57.517Z,11.07
2023-03-14T01:21:26.742Z,11.06
2023-03-14T01:23:55.592Z,11.05
2023-03-14T01:26:25.104Z,11.09
2023-03-14T01:28:54.199Z,11.13
2023-03-14T01:31:21.081Z,11.18
2023-03-14T01:33:48.389Z,11.23
2023-03-14T01:36:15.571Z,11.26
2023-03-14T01:38:43.293Z,11.29
2023-03-14T01:41:16.228Z,11.31
2023-03-14T01:43:43.127Z,11.32
2023-03-14T01:46:21.425Z,11.36
2023-03-14T01:48:54.825Z,11.38
2023-03-14T01:51:37.328Z,11.38
2023-03-14T01:54:13.273Z,11.37
2023-03-14T01:56:41.726Z,11.38
2023-03-14T01:59:11.183Z,11.41
2023-03-14T02:01:44.763Z,11.45
2023-03-14T02:04:13.942Z,11.50
2023-03-14T02:06:52.346Z,11.56
2023-03-14T02:09:24.732Z,11.61
2023-03-14T02:11:54.603Z,11.64
2023-03-14T02:14:35.245Z,11.68
2023-03-14T02:17:08.422Z,11.70
2023-03-14T02:20:23.766Z,11.72
2023-03-14T02:22:53.994Z,11.71
2023-03-14T02:25:55.155Z,11.68
2023-03-14T02:28:24.596Z,11.66
2023-03-14T02:30:53.909Z,11.63
2023-03-14T02:33:22.384Z,11.61
2023-03-14T02:35:58.124Z,11.60
2023-03-14T02:38:43.336Z,11.58
2023-03-14T02:41:10.370Z,11.58
2023-03-14T02:43:37.329Z,11.58
2023-03-14T02:46:06.763Z,11.55
2023-03-14T02:49:04.272Z,11.54
2023-03-14T02:51:31.422Z,11.49
2023-03-14T02:53:58.273Z,11.43
2023-03-14T02:56:25.622Z,11.40
2023-03-14T02:58:52.564Z,11.40
2023-03-14T03:01:19.414Z,11.40
2023-03-14T03:03:46.557Z,11.39
2023-03-14T03:06:13.410Z,11.36
2023-03-14T03:08:40.345Z,11.31
2023-03-14T03:11:07.790Z,11.25
2023-03-14T03:13:35.454Z,11.21
2023-03-14T03:16:02.589Z,11.16
2023-03-14T03:18:29.648Z,11.12
2023-03-14T03:20:56.689Z,11.08
2023-03-14T03:23:23.733Z,11.04
2023-03-14T03:25:52.662Z,11.00
2023-03-14T03:28:20.453Z,10.94
2023-03-14T03:30:47.360Z,10.87
2023-03-14T03:33:15.090Z,10.77
2023-03-14T03:35:51.011Z,10.68
2023-03-14T03:38:18.349Z,10.58
2023-03-14T03:40:45.241Z,10.49
2023-03-14T03:43:12.407Z,10.41
2023-03-14T03:45:39.218Z,10.33
2023-03-14T03:48:06.370Z,10.29
2023-03-14T03:50:33.213Z,10.27
2023-03-14T03:53:00.054Z,10.26
2023-03-14T03:55:27.619Z,10.23
2023-03-14T03:57:54.652Z,10.19
2023-03-14T04:00:21.505Z,10.12
2023-03-14T04:02:48.379Z,10.05
2023-03-14T04:05:15.593Z,9.99
2023-03-14T04:07:42.444Z,9.93
2023-03-14T04:10:09.892Z,9.86
2023-03-14T04:12:36.845Z,9.78
2023-03-14T04:15:04.396Z,9.69
2023-03-14T04:17:33.337Z,9.61
2023-03-14T04:20:00.340Z,9.53
2023-03-14T04:22:27.676Z,9.45
2023-03-14T04:24:54.977Z,9.35
2023-03-14T04:27:22.063Z,9.27
2023-03-14T04:29:49.215Z,9.17
2023-03-14T04:32:16.370Z,9.05
2023-03-14T04:34:43.821Z,8.96
2023-03-14T04:37:10.855Z,8.93
2023-03-14T04:39:38.005Z,8.91
2023-03-14T04:42:04.835Z,8.90
2023-03-14T04:44:31.685Z,8.89
2023-03-14T04:46:58.701Z,8.96
2023-03-14T04:49:25.982Z,9.10
2023-03-14T04:51:53.103Z,9.28
2023-03-14T04:54:20.170Z,9.43
2023-03-14T04:56:47.005Z,9.60
2023-03-14T04:59:13.959Z,9.73
2023-03-14T05:01:42.580Z,9.82
2023-03-14T05:04:09.678Z,9.86
2023-03-14T05:06:36.839Z,9.88
2023-03-14T05:09:06.242Z,9.89
2023-03-14T05:11:34.399Z,9.91
2023-03-14T05:14:01.240Z,9.92
2023-03-14T05:16:28.142Z,9.94
2023-03-14T05:18:55.426Z,9.95
2023-03-14T05:21:22.289Z,9.96
2023-03-14T05:23:49.945Z,9.99
2023-03-14T05:26:18.315Z,10.00
2023-03-14T05:28:47.288Z,10.01
2023-03-14T05:31:15.845Z,10.00
2023-03-14T05:33:43.119Z,9.99
2023-03-14T05:36:10.332Z,9.99
2023-03-14T05:38:37.236Z,9.98
2023-03-14T05:41:04.638Z,9.97
2023-03-14T05:43:31.514Z,9.95
2023-03-14T05:45:58.664Z,9.93
2023-03-14T05:48:25.932Z,9.91
2023-03-14T05:50:57.771Z,9.88
2023-03-14T05:53:25.340Z,9.85
2023-03-14T05:55:58.070Z,9.83
2023-03-14T05:58:25.669Z,9.80
2023-03-14T06:00:53.024Z,9.80
2023-03-14T06:03:20.237Z,9.80
2023-03-14T06:05:47.536Z,9.80
2023-03-14T06:08:17.825Z,9.80
2023-03-14T06:10:44.995Z,9.81
2023-03-14T06:13:11.928Z,9.81
2023-03-14T06:15:39.069Z,9.82
2023-03-14T06:18:06.019Z,9.84
2023-03-14T06:20:34.397Z,9.85
2023-03-14T06:23:01.228Z,9.85
2023-03-14T06:25:28.070Z,9.87
2023-03-14T06:27:55.122Z,9.88
2023-03-14T06:30:23.094Z,9.90
2023-03-14T06:32:50.150Z,9.93
2023-03-14T06:35:17.895Z,9.95
2023-03-14T06:37:44.840Z,9.97
2023-03-14T06:40:15.264Z,10.01
2023-03-14T06:42:42.103Z,10.05
2023-03-14T06:45:09.970Z,10.10
2023-03-14T06:47:37.112Z,10.15
2023-03-14T06:50:04.474Z,10.21
2023-03-14T06:52:31.336Z,10.27
2023-03-14T06:54:58.359Z,10.33
2023-03-14T06:57:25.189Z,10.38
2023-03-14T06:59:52.240Z,10.45
2023-03-14T07:02:20.272Z,10.50
2023-03-14T07:04:48.446Z,10.56
2023-03-14T07:07:15.520Z,10.60
2023-03-14T07:09:43.082Z,10.66
2023-03-14T07:12:10.022Z,10.71
2023-03-14T07:14:36.968Z,10.76
2023-03-14T07:17:04.119Z,10.84
2023-03-14T07:19:31.063Z,10.92
2023-03-14T07:21:58.825Z,10.99
2023-03-14T07:24:25.969Z,11.08
2023-03-14T07:29:21.497Z,11.26
2023-03-14T07:31:48.653Z,11.35
2023-03-14T07:34:15.583Z,11.43
2023-03-14T07:36:42.417Z,11.52
2023-03-14T07:39:09.269Z,11.62
2023-03-14T07:41:36.724Z,11.75
2023-03-14T07:44:03.664Z,11.92
2023-03-14T07:46:30.633Z,12.13
2023-03-14T07:48:57.645Z,12.33
2023-03-14T07:51:24.594Z,12.55
2023-03-14T07:53:51.438Z,12.74
2023-03-14T07:56:18.487Z,12.90
2023-03-14T07:58:45.619Z,13.05
2023-03-14T08:01:12.580Z,13.17
2023-03-14T08:03:39.677Z,13.26
2023-03-14T08:06:07.272Z,13.33
2023-03-14T08:08:35.042Z,13.42
2023-03-14T08:11:12.218Z,13.57
2023-03-14T08:13:40.715Z,13.73
2023-03-14T08:16:08.710Z,13.89
2023-03-14T08:18:35.620Z,14.07
2023-03-14T08:21:02.678Z,14.19
2023-03-14T08:23:29.727Z,14.26
2023-03-14T08:25:57.464Z,14.32
2023-03-14T08:28:24.923Z,14.38
2023-03-14T08:30:52.808Z,14.38
2023-03-14T08:36:16.977Z,14.37
2023-03-14T08:38:44.143Z,14.32
2023-03-14T08:41:12.077Z,14.27
2023-03-14T08:43:39.018Z,14.21
2023-03-14T08:46:06.485Z,14.11
2023-03-14T08:48:33.652Z,14.02
2023-03-14T08:51:27.025Z,13.94
2023-03-14T08:53:53.822Z,13.88
2023-03-14T08:56:21.000Z,13.88
2023-03-14T08:58:48.019Z,13.92
2023-03-14T09:01:15.220Z,13.98
2023-03-14T09:03:42.365Z,14.06
2023-03-14T09:06:16.169Z,14.16
2023-03-14T09:08:42.957Z,14.24
2023-03-14T09:11:10.269Z,14.28
2023-03-14T09:13:37.886Z,14.29
2023-03-14T09:16:05.913Z,14.27
2023-03-14T09:18:33.350Z,14.31
2023-03-14T09:21:00.871Z,14.38
2023-03-14T09:23:29.350Z,14.46
2023-03-14T09:26:00.895Z,14.54
2023-03-14T09:28:28.626Z,14.63
2023-03-14T09:30:56.227Z,14.73
2023-03-14T09:33:24.007Z,14.92
2023-03-14T09:35:51.746Z,15.14
2023-03-14T09:38:19.077Z,15.37
2023-03-14T09:40:46.858Z,15.56
2023-03-14T09:43:16.920Z,15.75
2023-03-14T09:45:47.481Z,15.93
2023-03-14T09:48:21.922Z,16.02
2023-03-14T09:50:55.755Z,15.97
2023-03-14T09:53:30.120Z,15.88
2023-03-14T09:55:59.851Z,15.84
2023-03-14T09:58:27.413Z,15.80
2023-03-14T10:00:59.592Z,15.75
2023-03-14T10:03:36.475Z,15.61
2023-03-14T10:06:12.467Z,15.46
2023-03-14T10:08:47.122Z,15.31
2023-03-14T10:11:18.843Z,15.17
2023-03-14T10:14:14.783Z,15.00
2023-03-14T10:16:47.561Z,14.81
2023-03-14T10:19:17.436Z,14.66
2023-03-14T10:21:51.015Z,14.55
2023-03-14T10:24:24.153Z,14.46
2023-03-14T10:26:55.381Z,14.36
2023-03-14T10:29:25.687Z,14.26
2023-03-14T10:31:55.890Z,14.17
2023-03-14T10:34:37.666Z,14.06
2023-03-14T10:37:27.912Z,13.95
2023-03-14T10:40:00.201Z,13.83
2023-03-14T10:42:35.211Z,13.74
2023-03-14T10:45:06.983Z,13.65
2023-03-14T10:47:34.777Z,13.56
2023-03-14T10:50:28.104Z,13.46
2023-03-14T10:53:03.794Z,13.38
2023-03-14T10:55:42.388Z,13.31
2023-03-14T10:58:33.068Z,13.24
2023-03-14T11:01:19.440Z,13.14
2023-03-14T11:03:57.008Z,13.04
2023-03-14T11:06:44.688Z,12.88
2023-03-14T11:09:29.749Z,12.73
2023-03-14T11:12:11.179Z,12.61
2023-03-14T11:14:44.934Z,12.52
2023-03-14T11:17:38.205Z,12.48
2023-03-14T11:20:26.219Z,12.44
2023-03-14T11:23:02.540Z,12.44
2023-03-14T11:25:52.572Z,12.43
2023-03-14T11:28:41.537Z,12.44
2023-03-14T11:31:17.777Z,12.45
2023-03-14T11:33:53.843Z,12.45
2023-03-14T11:36:27.230Z,12.46
2023-03-14T11:38:58.941Z,12.47
2023-03-14T11:41:42.550Z,12.49
2023-03-14T11:44:35.683Z,12.50
2023-03-14T11:47:15.821Z,12.50
2023-03-14T11:49:54.803Z,12.51
2023-03-14T11:52:29.580Z,12.51
2023-03-14T11:55:20.451Z,12.51
2023-03-14T11:57:52.043Z,12.50
2023-03-14T12:00:22.207Z,12.46
2023-03-14T12:03:02.425Z,12.43
2023-03-14T12:05:51.510Z,12.39
2023-03-14T12:08:26.132Z,12.36
2023-03-14T12:11:12.852Z,12.33
2023-03-14T12:13:41.742Z,12.29
2023-03-14T12:16:27.782Z,12.27
2023-03-14T12:18:56.054Z,12.24
2023-03-14T12:21:25.778Z,12.22
2023-03-14T12:23:55.910Z,12.19
2023-03-14T12:26:30.484Z,12.17
2023-03-14T12:29:00.621Z,12.14
2023-03-14T12:31:33.570Z,12.11
2023-03-14T12:34:24.859Z,12.28
2023-03-14T12:37:08.069Z,13.51
2023-03-14T12:39:41.220Z,14.55
2023-03-14T12:42:24.032Z,14.48
2023-03-14T12:44:54.662Z,13.81
2023-03-14T12:47:21.716Z,13.33
2023-03-14T12:49:52.431Z,13.00
2023-03-14T12:53:05.932Z,12.75
2023-03-14T12:56:03.810Z,12.48
2023-03-14T12:58:35.258Z,12.29
2023-03-14T13:01:05.255Z,12.16
2023-03-14T13:03:45.303Z,12.06
2023-03-14T13:06:13.836Z,12.27
2023-03-14T13:08:46.481Z,13.35
2023-03-14T13:11:22.649Z,14.38
2023-03-14T13:13:54.396Z,14.97
2023-03-14T13:16:22.332Z,14.62
2023-03-14T13:19:02.028Z,13.92
2023-03-14T13:21:35.511Z,13.32
2023-03-14T13:24:06.743Z,12.88
2023-03-14T13:26:38.379Z,12.53
2023-03-14T13:29:32.966Z,12.50
2023-03-14T13:32:02.711Z,13.50
2023-03-14T13:34:32.616Z,14.33
2023-03-14T13:37:00.633Z,14.85
2023-03-14T13:39:31.259Z,15.25
2023-03-14T13:42:03.050Z,15.57
2023-03-14T13:44:39.831Z,15.54
2023-03-14T13:47:16.486Z,14.63
2023-03-14T13:49:45.353Z,13.77
2023-03-14T13:52:30.392Z,13.14
2023-03-14T13:55:00.247Z,12.90
2023-03-14T13:57:28.065Z,13.68
2023-03-14T14:00:09.372Z,14.51
2023-03-14T14:02:38.977Z,15.09
2023-03-14T14:05:06.644Z,15.41
2023-03-14T14:07:34.078Z,15.62
2023-03-14T14:10:05.296Z,15.82
2023-03-14T14:12:42.926Z,16.02
2023-03-14T14:15:20.911Z,16.18
2023-03-14T14:17:58.896Z,16.32
2023-03-14T14:20:41.361Z,16.40
2023-03-14T14:23:13.437Z,16.42
2023-03-14T14:25:41.906Z,15.91
2023-03-14T14:28:32.628Z,14.83
2023-03-14T14:31:19.166Z,13.74
2023-03-14T14:33:58.002Z,13.27
2023-03-14T14:36:50.601Z,14.01
2023-03-14T14:39:27.393Z,14.63
2023-03-14T14:41:54.942Z,14.81
2023-03-14T14:44:34.170Z,14.87
2023-03-14T14:47:04.562Z,14.86
2023-03-14T14:49:34.513Z,15.04
2023-03-14T14:52:05.853Z,15.18
2023-03-14T14:54:41.249Z,15.29
2023-03-14T14:57:20.557Z,15.42
2023-03-14T14:59:52.470Z,14.97
2023-03-14T15:02:45.930Z,13.95
2023-03-14T15:05:25.450Z,13.40
2023-03-14T15:07:52.881Z,14.02
2023-03-14T15:10:24.176Z,14.51
2023-03-14T15:12:52.311Z,14.96
2023-03-14T15:15:20.012Z,15.07
2023-03-14T15:17:46.964Z,15.14
2023-03-14T15:20:17.036Z,15.24
2023-03-14T15:22:44.844Z,14.92
2023-03-14T15:25:31.671Z,13.99
2023-03-14T15:27:59.726Z,13.32
2023-03-14T15:30:26.657Z,13.91
2023-03-14T15:32:54.090Z,14.57
2023-03-14T15:35:21.517Z,14.94
2023-03-14T15:37:48.821Z,15.26
2023-03-14T15:40:16.901Z,15.30
2023-03-14T15:42:44.468Z,14.48
2023-03-14T15:45:12.212Z,13.60
2023-03-14T15:47:39.375Z,13.00
2023-03-14T15:50:11.588Z,13.38
2023-03-14T15:52:40.069Z,14.18
2023-03-14T15:55:07.907Z,14.70
2023-03-14T15:57:35.184Z,15.16
2023-03-14T16:00:02.749Z,15.19
2023-03-14T16:02:31.388Z,14.42
2023-03-14T16:04:58.318Z,13.53
2023-03-14T16:07:25.337Z,13.11
2023-03-14T16:09:52.562Z,13.69
2023-03-14T16:12:19.429Z,14.34
2023-03-14T16:14:48.958Z,14.84
2023-03-14T16:17:16.504Z,15.16
2023-03-14T16:19:43.501Z,15.39
2023-03-14T16:22:11.099Z,14.85
2023-03-14T16:24:38.376Z,13.98
2023-03-14T16:27:08.471Z,13.26
2023-03-14T16:29:35.609Z,12.68
2023-03-14T16:32:02.678Z,12.27
2023-03-14T16:34:30.062Z,12.17
2023-03-14T16:36:57.063Z,13.07
2023-03-14T16:39:24.445Z,14.08
2023-03-14T16:41:51.446Z,14.79
2023-03-14T16:44:18.494Z,15.26
2023-03-14T16:46:45.758Z,15.62
2023-03-14T16:49:12.990Z,15.55
2023-03-14T16:51:41.418Z,14.60
2023-03-14T16:54:08.780Z,13.65
2023-03-14T16:56:36.283Z,12.95
2023-03-14T16:59:03.362Z,12.45
2023-03-14T17:01:30.588Z,12.06
2023-03-14T17:03:57.889Z,12.05
2023-03-14T17:06:29.358Z,13.02
2023-03-14T17:08:57.986Z,13.93
2023-03-14T17:11:25.168Z,14.47
2023-03-14T17:13:52.721Z,14.98
2023-03-14T17:16:21.694Z,15.16
2023-03-14T17:18:49.897Z,14.41
2023-03-14T17:21:17.344Z,13.54
2023-03-14T17:23:54.874Z,12.85
2023-03-14T17:26:22.846Z,12.30
2023-03-14T17:28:50.377Z,11.98
2023-03-14T17:31:19.302Z,12.60
2023-03-14T17:33:47.116Z,13.51
2023-03-14T17:36:15.280Z,14.15
2023-03-14T17:38:42.684Z,14.60
2023-03-14T17:41:11.817Z,14.65
2023-03-14T17:43:40.501Z,13.88
2023-03-14T17:46:15.392Z,13.04
2023-03-14T17:48:47.141Z,12.41
2023-03-14T17:51:15.817Z,11.93
2023-03-14T17:53:43.662Z,11.59
2023-03-14T17:56:12.145Z,11.32
2023-03-14T17:58:39.905Z,11.35
2023-03-14T18:01:12.541Z,12.46
2023-03-14T18:03:40.816Z,13.53
2023-03-14T18:06:10.189Z,14.18
2023-03-14T18:08:38.872Z,14.58
2023-03-14T18:11:07.498Z,14.65
2023-03-14T18:13:36.820Z,13.88
2023-03-14T18:16:07.411Z,13.04
2023-03-14T18:18:35.172Z,12.40
2023-03-14T18:21:02.221Z,11.91
2023-03-14T18:23:29.322Z,11.83
2023-03-14T18:25:59.625Z,12.67
2023-03-14T18:28:27.397Z,13.52
2023-03-14T18:30:54.692Z,14.14
2023-03-14T18:33:22.711Z,14.54
2023-03-14T18:35:53.590Z,14.85
2023-03-14T18:38:20.773Z,14.81
2023-03-14T18:40:48.571Z,13.90
2023-03-14T18:43:15.929Z,13.07
2023-03-14T18:45:43.370Z,12.44
2023-03-14T18:48:10.452Z,11.95
2023-03-14T18:50:37.683Z,11.84
2023-03-14T18:53:05.173Z,12.66
2023-03-14T18:55:32.282Z,13.50
2023-03-14T18:57:59.570Z,14.01
2023-03-14T19:00:28.339Z,13.83
2023-03-14T19:02:55.811Z,13.03
2023-03-14T19:05:22.937Z,12.30
2023-03-14T19:07:50.061Z,11.78
2023-03-14T19:10:17.329Z,12.16
2023-03-14T19:12:45.489Z,12.87
2023-03-14T19:15:12.862Z,13.41
2023-03-14T19:17:39.888Z,13.82
2023-03-14T19:20:07.752Z,13.85
2023-03-14T19:22:35.257Z,13.05
2023-03-14T19:25:02.770Z,12.23
2023-03-14T19:27:30.772Z,11.62
2023-03-14T19:29:57.961Z,11.20
2023-03-14T19:32:25.667Z,11.42
2023-03-14T19:34:52.848Z,12.41
2023-03-14T19:37:19.927Z,13.08
2023-03-14T19:39:47.272Z,13.35
2023-03-14T19:42:14.615Z,12.84
2023-03-14T19:44:42.045Z,12.05
2023-03-14T19:47:09.264Z,11.43
2023-03-14T19:49:36.583Z,11.01
2023-03-14T19:52:03.823Z,11.20
2023-03-14T19:54:32.158Z,11.93
2023-03-14T19:56:59.488Z,12.59
2023-03-14T19:59:27.082Z,12.98
2023-03-14T20:01:55.180Z,12.99
2023-03-14T20:04:22.761Z,12.32
2023-03-14T20:06:49.777Z,11.62
2023-03-14T20:09:17.544Z,11.25
2023-03-14T20:11:44.764Z,11.74
2023-03-14T20:14:15.045Z,12.33
2023-03-14T20:16:43.023Z,12.98
2023-03-14T20:19:15.783Z,13.22
2023-03-14T20:21:43.341Z,12.50
2023-03-14T20:24:10.690Z,11.71
2023-03-14T20:26:37.930Z,11.16
2023-03-14T20:29:05.973Z,10.78
2023-03-14T20:31:34.294Z,11.19
2023-03-14T20:34:01.622Z,12.15
2023-03-14T20:36:28.935Z,12.89
2023-03-14T20:38:55.925Z,13.43
2023-03-14T20:41:22.971Z,13.50
2023-03-14T20:43:50.375Z,12.67
2023-03-14T20:46:18.113Z,11.81
2023-03-14T20:48:45.892Z,11.19
2023-03-14T20:51:14.785Z,11.01
2023-03-14T20:53:43.170Z,11.83
2023-03-14T20:56:10.612Z,12.68
2023-03-14T20:58:37.971Z,13.23
2023-03-14T21:03:49.657Z,12.44
2023-03-14T21:06:16.757Z,11.61
2023-03-14T21:08:44.010Z,11.02
2023-03-14T21:11:10.857Z,10.77
2023-03-14T21:13:37.945Z,11.51
2023-03-14T21:16:05.516Z,12.39
2023-03-14T21:18:32.940Z,13.05
2023-03-14T21:21:01.056Z,13.24
2023-03-14T21:23:28.126Z,12.50
2023-03-14T21:25:57.144Z,11.67
2023-03-14T21:28:24.729Z,11.02
2023-03-14T21:30:51.852Z,10.55
2023-03-14T21:33:18.754Z,10.46
2023-03-14T21:35:46.056Z,11.32
2023-03-14T21:38:12.975Z,12.15
2023-03-14T21:40:40.011Z,12.71
2023-03-14T21:43:07.041Z,13.11
2023-03-14T21:45:36.099Z,13.44
2023-03-14T21:48:03.182Z,13.69
2023-03-14T21:50:30.423Z,13.27
2023-03-14T21:52:57.897Z,12.41
2023-03-14T21:55:26.199Z,11.66
2023-03-14T21:57:55.189Z,11.11
2023-03-14T22:00:23.434Z,10.68
2023-03-14T22:03:08.611Z,10.36
2023-03-14T22:05:39.012Z,10.44
2023-03-14T22:08:06.076Z,11.37
2023-03-14T22:10:32.972Z,12.23
2023-03-14T22:13:00.100Z,12.75
2023-03-14T22:15:27.212Z,12.99
2023-03-14T22:17:54.183Z,13.21
2023-03-14T22:20:21.441Z,13.51
2023-03-14T22:22:48.429Z,13.72
2023-03-14T22:25:15.785Z,13.65
2023-03-14T22:27:43.112Z,12.87
2023-03-14T22:30:10.903Z,12.04
2023-03-14T22:32:37.983Z,11.38
2023-03-14T22:35:05.294Z,11.09
2023-03-14T22:37:32.335Z,11.54
2023-03-14T22:39:59.458Z,12.06
2023-03-14T22:42:26.431Z,12.34
2023-03-14T22:44:53.529Z,12.52
2023-03-14T22:47:20.967Z,12.72
2023-03-14T22:49:47.903Z,12.82
2023-03-14T22:52:14.966Z,12.72
2023-03-14T22:54:41.929Z,12.62
2023-03-14T22:57:08.972Z,12.50
2023-03-14T22:59:36.408Z,12.22
2023-03-14T23:02:03.459Z,12.11
2023-03-14T23:04:30.493Z,12.11
2023-03-14T23:06:57.806Z,12.22
2023-03-14T23:09:24.811Z,12.19
2023-03-14T23:11:52.329Z,11.37
2023-03-14T23:14:20.457Z,10.18
2023-03-14T23:16:47.595Z,9.20
2023-03-14T23:19:14.811Z,8.42
2023-03-14T23:21:42.842Z,8.00
2023-03-14T23:24:09.987Z,8.56
2023-03-14T23:26:36.896Z,9.25
2023-03-14T23:29:07.354Z,9.73
2023-03-14T23:31:34.882Z,9.92
2023-03-14T23:34:02.277Z,9.41
2023-03-14T23:36:30.058Z,8.37
2023-03-14T23:38:56.869Z,7.45
2023-03-14T23:41:23.624Z,6.78
2023-03-14T23:43:51.082Z,6.40
2023-03-14T23:46:18.091Z,7.00
2023-03-14T23:48:47.407Z,7.91
2023-03-14T23:51:15.544Z,8.59
2023-03-14T23:53:43.376Z,9.09
2023-03-14T23:56:13.699Z,9.41
2023-03-14T23:58:41.545Z,9.32
